createdAt,value
2022-08-25T00:00:06.690Z,20.99
2022-08-25T00:01:06.683Z,21.01
2022-08-25T00:02:06.666Z,21.01
2022-08-25T00:03:06.685Z,21.01
2022-08-25T00:04:06.664Z,21.01
2022-08-25T00:05:06.690Z,21.01
2022-08-25T00:06:06.631Z,20.99
2022-08-25T00:07:06.621Z,20.98
2022-08-25T00:08:06.801Z,20.95
2022-08-25T00:09:06.619Z,20.93
2022-08-25T00:10:06.581Z,20.90
2022-08-25T00:11:06.611Z,20.87
2022-08-25T00:12:06.559Z,20.86
2022-08-25T00:13:06.544Z,20.86
2022-08-25T00:14:06.539Z,20.84
2022-08-25T00:15:06.542Z,20.83
2022-08-25T00:16:06.560Z,20.81
2022-08-25T00:17:06.502Z,20.79
2022-08-25T00:18:11.511Z,20.79
2022-08-25T00:19:06.495Z,20.76
2022-08-25T00:20:06.489Z,20.76
2022-08-25T00:21:06.466Z,20.76
2022-08-25T00:22:06.454Z,20.74
2022-08-25T00:23:06.440Z,20.76
2022-08-25T00:24:06.435Z,20.76
2022-08-25T00:25:06.444Z,20.74
2022-08-25T00:26:06.421Z,20.72
2022-08-25T00:27:06.396Z,20.72
2022-08-25T00:28:08.493Z,20.72
2022-08-25T00:29:06.379Z,20.69
2022-08-25T00:30:06.390Z,20.68
2022-08-25T00:31:06.425Z,20.64
2022-08-25T00:32:06.340Z,20.65
2022-08-25T00:33:06.335Z,20.64
2022-08-25T00:34:06.331Z,20.65
2022-08-25T00:35:06.331Z,20.64
2022-08-25T00:36:06.301Z,20.64
2022-08-25T00:37:06.295Z,20.64
2022-08-25T00:38:06.473Z,20.64
2022-08-25T00:39:06.268Z,20.65
2022-08-25T00:40:06.350Z,20.62
2022-08-25T00:41:06.254Z,20.62
2022-08-25T00:42:06.231Z,20.62
2022-08-25T00:43:06.243Z,20.59
2022-08-25T00:44:06.209Z,20.58
2022-08-25T00:45:06.221Z,20.56
2022-08-25T00:46:06.226Z,20.54
2022-08-25T00:47:06.184Z,20.53
2022-08-25T00:48:06.446Z,20.53
2022-08-25T00:49:06.158Z,20.51
2022-08-25T00:50:06.171Z,20.50
2022-08-25T00:51:06.138Z,20.51
2022-08-25T00:52:06.118Z,20.51
2022-08-25T00:53:06.119Z,20.50
2022-08-25T00:54:06.109Z,20.49
2022-08-25T00:55:08.127Z,20.47
2022-08-25T00:56:06.082Z,20.49
2022-08-25T00:57:06.071Z,20.49
2022-08-25T00:58:06.149Z,20.47
2022-08-25T00:59:06.077Z,20.47
2022-08-25T01:00:06.048Z,20.46
2022-08-25T01:01:06.074Z,20.46
2022-08-25T01:02:06.027Z,20.47
2022-08-25T01:03:06.106Z,20.47
2022-08-25T01:04:05.999Z,20.49
2022-08-25T01:05:06.020Z,20.49
2022-08-25T01:06:05.972Z,20.47
2022-08-25T01:07:05.969Z,20.47
2022-08-25T01:08:06.843Z,20.47
2022-08-25T01:09:05.943Z,20.43
2022-08-25T01:10:05.944Z,20.43
2022-08-25T01:11:05.920Z,20.43
2022-08-25T01:12:05.903Z,20.39
2022-08-25T01:13:05.898Z,20.39
2022-08-25T01:14:05.891Z,20.35
2022-08-25T01:15:05.901Z,20.35
2022-08-25T01:16:05.981Z,20.34
2022-08-25T01:17:05.850Z,20.33
2022-08-25T01:18:05.974Z,20.34
2022-08-25T01:19:05.831Z,20.33
2022-08-25T01:20:05.827Z,20.31
2022-08-25T01:21:05.817Z,20.27
2022-08-25T01:22:05.803Z,20.27
2022-08-25T01:23:05.792Z,20.27
2022-08-25T01:24:05.778Z,20.25
2022-08-25T01:25:05.787Z,20.24
2022-08-25T01:26:05.752Z,20.25
2022-08-25T01:27:05.753Z,20.24
2022-08-25T01:28:05.849Z,20.23
2022-08-25T01:29:05.726Z,20.24
2022-08-25T01:30:05.735Z,20.23
2022-08-25T01:31:23.447Z,20.25
2022-08-25T01:32:05.690Z,20.27
2022-08-25T01:33:05.685Z,20.25
2022-08-25T01:34:05.668Z,20.24
2022-08-25T01:35:05.667Z,20.24
2022-08-25T01:36:05.648Z,20.24
2022-08-25T01:37:05.641Z,20.23
2022-08-25T01:38:05.879Z,20.21
2022-08-25T01:39:05.612Z,20.20
2022-08-25T01:40:05.650Z,20.18
2022-08-25T01:41:05.601Z,20.18
2022-08-25T01:42:05.582Z,20.16
2022-08-25T01:43:05.574Z,20.18
2022-08-25T01:44:05.561Z,20.15
2022-08-25T01:45:05.565Z,20.18
2022-08-25T01:46:05.600Z,20.15
2022-08-25T01:47:05.527Z,20.15
2022-08-25T01:48:05.658Z,20.12
2022-08-25T01:49:06.916Z,20.10
2022-08-25T01:50:05.507Z,20.12
2022-08-25T01:51:05.484Z,20.10
2022-08-25T01:52:05.475Z,20.09
2022-08-25T01:53:05.459Z,20.09
2022-08-25T01:54:05.450Z,20.06
2022-08-25T01:55:05.465Z,20.03
2022-08-25T01:56:05.424Z,20.02
2022-08-25T01:57:05.413Z,20.02
2022-08-25T01:58:05.618Z,20.00
2022-08-25T01:59:05.397Z,20.00
2022-08-25T02:00:05.396Z,19.98
2022-08-25T02:01:05.444Z,19.98
2022-08-25T02:02:05.591Z,20.02
2022-08-25T02:04:02.223Z,20.02
2022-08-25T02:05:03.224Z,20.00
2022-08-25T02:06:04.257Z,19.98
2022-08-25T02:07:03.187Z,19.94
2022-08-25T02:08:03.293Z,19.93
2022-08-25T02:09:03.178Z,19.93
2022-08-25T02:10:03.648Z,19.94
2022-08-25T02:11:03.146Z,19.91
2022-08-25T02:12:03.140Z,19.91
2022-08-25T02:13:03.125Z,19.91
2022-08-25T02:14:03.124Z,19.93
2022-08-25T02:15:03.124Z,19.93
2022-08-25T02:16:03.109Z,19.91
2022-08-25T02:17:03.129Z,19.88
2022-08-25T02:18:03.125Z,19.88
2022-08-25T02:19:03.059Z,19.87
2022-08-25T02:20:03.096Z,19.87
2022-08-25T02:21:03.067Z,19.87
2022-08-25T02:22:03.081Z,19.86
2022-08-25T02:23:03.022Z,19.86
2022-08-25T02:24:03.026Z,19.86
2022-08-25T02:25:03.012Z,19.86
2022-08-25T02:26:02.992Z,19.86
2022-08-25T02:27:02.973Z,19.84
2022-08-25T02:28:03.006Z,19.86
2022-08-25T02:29:02.949Z,19.83
2022-08-25T02:30:02.985Z,19.83
2022-08-25T02:31:02.978Z,19.80
2022-08-25T02:32:02.925Z,19.80
2022-08-25T02:33:02.924Z,19.80
2022-08-25T02:34:02.915Z,19.83
2022-08-25T02:35:02.938Z,19.80
2022-08-25T02:36:02.877Z,19.83
2022-08-25T02:37:02.911Z,19.79
2022-08-25T02:38:03.013Z,19.79
2022-08-25T02:39:02.833Z,19.78
2022-08-25T02:40:02.906Z,19.79
2022-08-25T02:41:02.822Z,19.78
2022-08-25T02:42:02.829Z,19.76
2022-08-25T02:43:02.823Z,19.76
2022-08-25T02:44:02.795Z,19.76
2022-08-25T02:45:02.810Z,19.76
2022-08-25T02:46:02.829Z,19.76
2022-08-25T02:47:02.769Z,19.76
2022-08-25T02:48:02.770Z,19.76
2022-08-25T02:49:02.753Z,19.78
2022-08-25T02:50:02.736Z,19.76
2022-08-25T02:51:02.786Z,19.75
2022-08-25T02:52:02.712Z,19.76
2022-08-25T02:53:02.692Z,19.75
2022-08-25T02:54:02.690Z,19.75
2022-08-25T02:55:02.699Z,19.75
2022-08-25T02:56:02.708Z,19.72
2022-08-25T02:57:02.649Z,19.72
2022-08-25T02:58:02.656Z,19.69
2022-08-25T02:59:02.642Z,19.68
2022-08-25T03:00:02.746Z,19.68
2022-08-25T03:01:02.654Z,19.69
2022-08-25T03:02:02.666Z,19.68
2022-08-25T03:03:02.580Z,19.69
2022-08-25T03:04:02.644Z,19.69
2022-08-25T03:05:02.645Z,19.69
2022-08-25T03:06:02.580Z,19.66
2022-08-25T03:07:02.623Z,19.65
2022-08-25T03:08:02.586Z,19.68
2022-08-25T03:09:02.518Z,19.66
2022-08-25T03:10:02.561Z,19.66
2022-08-25T03:11:02.536Z,19.65
2022-08-25T03:12:02.492Z,19.63
2022-08-25T03:13:02.473Z,19.60
2022-08-25T03:14:02.491Z,19.58
2022-08-25T03:15:02.516Z,19.57
2022-08-25T03:16:02.887Z,19.57
2022-08-25T03:17:02.496Z,19.55
2022-08-25T03:18:02.556Z,19.55
2022-08-25T03:19:02.420Z,19.54
2022-08-25T03:20:02.409Z,19.54
2022-08-25T03:21:02.415Z,19.54
2022-08-25T03:22:02.408Z,19.53
2022-08-25T03:23:02.368Z,19.54
2022-08-25T03:24:02.359Z,19.51
2022-08-25T03:25:02.342Z,19.50
2022-08-25T03:26:02.369Z,19.50
2022-08-25T03:27:02.329Z,19.53
2022-08-25T03:28:02.360Z,19.51
2022-08-25T03:29:02.330Z,19.51
2022-08-25T03:30:02.312Z,19.50
2022-08-25T03:31:02.314Z,19.50
2022-08-25T03:32:02.323Z,19.51
2022-08-25T03:33:02.268Z,19.51
2022-08-25T03:34:02.264Z,19.48
2022-08-25T03:35:02.280Z,19.47
2022-08-25T03:36:02.261Z,19.46
2022-08-25T03:37:02.233Z,19.46
2022-08-25T03:38:02.291Z,19.46
2022-08-25T03:39:02.215Z,19.46
2022-08-25T03:40:02.254Z,19.47
2022-08-25T03:41:02.194Z,19.47
2022-08-25T03:42:02.172Z,19.43
2022-08-25T03:43:02.190Z,19.43
2022-08-25T03:44:02.149Z,19.43
2022-08-25T03:45:02.130Z,19.43
2022-08-25T03:46:02.289Z,19.42
2022-08-25T03:47:02.147Z,19.42
2022-08-25T03:48:02.180Z,19.40
2022-08-25T03:49:02.114Z,19.40
2022-08-25T03:50:02.074Z,19.39
2022-08-25T03:51:02.100Z,19.38
2022-08-25T03:52:02.055Z,19.36
2022-08-25T03:53:02.049Z,19.35
2022-08-25T03:54:02.076Z,19.36
2022-08-25T03:55:02.029Z,19.33
2022-08-25T03:56:02.042Z,19.32
2022-08-25T03:57:02.005Z,19.32
2022-08-25T03:58:02.081Z,19.29
2022-08-25T03:59:01.965Z,19.29
2022-08-25T04:00:01.974Z,19.29
2022-08-25T04:01:02.061Z,19.28
2022-08-25T04:02:02.000Z,19.25
2022-08-25T04:03:01.942Z,19.25
2022-08-25T04:04:01.923Z,19.25
2022-08-25T04:05:01.924Z,19.25
2022-08-25T04:06:01.935Z,19.24
2022-08-25T04:07:01.882Z,19.25
2022-08-25T04:08:02.118Z,19.24
2022-08-25T04:09:01.882Z,19.23
2022-08-25T04:10:01.901Z,19.24
2022-08-25T04:11:01.871Z,19.24
2022-08-25T04:12:01.837Z,19.23
2022-08-25T04:13:01.872Z,19.23
2022-08-25T04:14:01.812Z,19.23
2022-08-25T04:15:01.817Z,19.21
2022-08-25T04:16:01.895Z,19.21
2022-08-25T04:17:01.781Z,19.20
2022-08-25T04:18:01.815Z,19.21
2022-08-25T04:19:01.832Z,19.21
2022-08-25T04:20:01.770Z,19.20
2022-08-25T04:21:01.787Z,19.18
2022-08-25T04:22:01.757Z,19.20
2022-08-25T04:23:01.725Z,19.18
2022-08-25T04:24:01.772Z,19.17
2022-08-25T04:25:01.694Z,19.18
2022-08-25T04:26:01.719Z,19.20
2022-08-25T04:27:01.725Z,19.20
2022-08-25T04:28:01.741Z,19.20
2022-08-25T04:29:01.656Z,19.18
2022-08-25T04:30:01.653Z,19.21
2022-08-25T04:31:01.655Z,19.21
2022-08-25T04:32:01.738Z,19.21
2022-08-25T04:33:01.610Z,19.23
2022-08-25T04:34:01.621Z,19.23
2022-08-25T04:35:01.598Z,19.23
2022-08-25T04:36:01.603Z,19.23
2022-08-25T04:37:01.622Z,19.23
2022-08-25T04:38:01.648Z,19.21
2022-08-25T04:39:01.544Z,19.23
2022-08-25T04:40:01.648Z,19.24
2022-08-25T04:41:01.601Z,19.25
2022-08-25T04:42:01.516Z,19.28
2022-08-25T04:43:01.518Z,19.28
2022-08-25T04:44:01.497Z,19.29
2022-08-25T04:45:01.537Z,19.31
2022-08-25T04:46:01.573Z,19.31
2022-08-25T04:47:01.472Z,19.32
2022-08-25T04:48:01.595Z,19.31
2022-08-25T04:49:01.469Z,19.32
2022-08-25T04:50:01.443Z,19.35
2022-08-25T04:51:01.438Z,19.35
2022-08-25T04:52:01.426Z,19.36
2022-08-25T04:53:01.411Z,19.36
2022-08-25T04:54:01.385Z,19.35
2022-08-25T04:55:01.366Z,19.35
2022-08-25T04:56:03.815Z,19.36
2022-08-25T04:57:01.358Z,19.38
2022-08-25T04:58:01.344Z,19.38
2022-08-25T04:59:01.336Z,19.39
2022-08-25T05:00:01.322Z,19.40
2022-08-25T05:01:01.420Z,19.40
2022-08-25T05:02:01.302Z,19.40
2022-08-25T05:03:01.287Z,19.42
2022-08-25T05:04:01.292Z,19.43
2022-08-25T05:05:01.264Z,19.46
2022-08-25T05:06:01.274Z,19.46
2022-08-25T05:07:01.256Z,19.47
2022-08-25T05:08:01.248Z,19.46
2022-08-25T05:09:01.215Z,19.47
2022-08-25T05:10:01.202Z,19.47
2022-08-25T05:11:01.217Z,19.47
2022-08-25T05:12:01.186Z,19.46
2022-08-25T05:13:01.166Z,19.46
2022-08-25T05:14:01.177Z,19.47
2022-08-25T05:15:01.155Z,19.47
2022-08-25T05:16:01.250Z,19.46
2022-08-25T05:17:01.129Z,19.47
2022-08-25T05:18:01.259Z,19.47
2022-08-25T05:19:01.112Z,19.50
2022-08-25T05:20:01.155Z,19.51
2022-08-25T05:21:01.116Z,19.51
2022-08-25T05:22:01.092Z,19.53
2022-08-25T05:23:01.075Z,19.54
2022-08-25T05:24:01.069Z,19.55
2022-08-25T05:25:01.040Z,19.55
2022-08-25T05:26:01.060Z,19.58
2022-08-25T05:27:01.021Z,19.60
2022-08-25T05:28:01.015Z,19.60
2022-08-25T05:29:01.022Z,19.60
2022-08-25T05:30:00.993Z,19.60
2022-08-25T05:31:01.006Z,19.58
2022-08-25T05:32:01.031Z,19.57
2022-08-25T05:33:00.961Z,19.57
2022-08-25T05:34:00.946Z,19.55
2022-08-25T05:35:00.943Z,19.57
2022-08-25T05:36:00.944Z,19.57
2022-08-25T05:37:00.930Z,19.60
2022-08-25T05:38:00.914Z,19.61
2022-08-25T05:39:00.899Z,19.61
2022-08-25T05:40:00.927Z,19.65
2022-08-25T05:41:00.931Z,19.65
2022-08-25T05:42:00.886Z,19.66
2022-08-25T05:43:00.853Z,19.68
2022-08-25T05:44:00.896Z,19.69
2022-08-25T05:45:00.843Z,19.69
2022-08-25T05:46:00.916Z,19.70
2022-08-25T05:47:00.871Z,19.72
2022-08-25T05:48:00.808Z,19.72
2022-08-25T05:49:00.815Z,19.73
2022-08-25T05:50:00.791Z,19.73
2022-08-25T05:51:00.793Z,19.76
2022-08-25T05:52:00.759Z,19.76
2022-08-25T05:53:00.752Z,19.79
2022-08-25T05:54:00.731Z,19.83
2022-08-25T05:55:00.750Z,19.83
2022-08-25T05:56:00.718Z,19.84
2022-08-25T05:57:00.748Z,19.83
2022-08-25T05:58:00.696Z,19.83
2022-08-25T05:59:00.705Z,19.86
2022-08-25T06:00:00.696Z,19.87
2022-08-25T06:01:00.715Z,19.87
2022-08-25T06:02:00.661Z,19.90
2022-08-25T06:03:00.692Z,19.88
2022-08-25T06:04:00.710Z,19.91
2022-08-25T06:05:00.629Z,19.90
2022-08-25T06:06:00.616Z,19.93
2022-08-25T06:07:00.617Z,19.93
2022-08-25T06:08:00.579Z,19.95
2022-08-25T06:09:00.599Z,19.97
2022-08-25T06:10:00.564Z,19.98
2022-08-25T06:11:00.559Z,20.02
2022-08-25T06:12:00.585Z,20.02
2022-08-25T06:13:00.539Z,20.02
2022-08-25T06:14:00.539Z,20.03
2022-08-25T06:15:00.517Z,20.03
2022-08-25T06:16:00.585Z,20.05
2022-08-25T06:17:00.494Z,20.03
2022-08-25T06:18:05.469Z,20.06
2022-08-25T06:19:00.468Z,20.08
2022-08-25T06:20:00.450Z,20.10
2022-08-25T06:21:00.457Z,20.10
2022-08-25T06:22:00.443Z,20.12
2022-08-25T06:23:00.415Z,20.13
2022-08-25T06:24:00.407Z,20.13
2022-08-25T06:25:00.399Z,20.18
2022-08-25T06:26:00.402Z,20.20
2022-08-25T06:27:00.374Z,20.25
2022-08-25T06:28:00.376Z,20.28
2022-08-25T06:29:00.342Z,20.30
2022-08-25T06:30:00.418Z,20.33
2022-08-25T06:31:00.363Z,20.34
2022-08-25T06:32:00.312Z,20.38
2022-08-25T06:33:00.306Z,20.39
2022-08-25T06:34:00.306Z,20.42
2022-08-25T06:35:00.294Z,20.43
2022-08-25T06:36:00.288Z,20.42
2022-08-25T06:37:00.259Z,20.41
2022-08-25T06:38:00.348Z,20.46
2022-08-25T06:39:00.252Z,20.49
2022-08-25T06:40:00.353Z,20.50
2022-08-25T06:41:00.232Z,20.54
2022-08-25T06:42:00.223Z,20.58
2022-08-25T06:43:00.198Z,20.61
2022-08-25T06:44:05.527Z,20.61
2022-08-25T06:45:00.204Z,20.65
2022-08-25T06:46:00.197Z,20.68
2022-08-25T06:47:00.260Z,20.68
2022-08-25T06:48:00.228Z,20.71
2022-08-25T06:49:00.130Z,20.72
2022-08-25T06:50:00.140Z,20.76
2022-08-25T06:51:00.125Z,20.72
2022-08-25T06:52:00.115Z,20.74
2022-08-25T06:53:00.085Z,20.74
2022-08-25T06:54:00.115Z,20.76
2022-08-25T06:55:00.080Z,20.80
2022-08-25T06:56:04.561Z,20.80
2022-08-25T06:57:00.078Z,20.81
2022-08-25T06:58:00.137Z,20.84
2022-08-25T06:59:00.025Z,20.86
2022-08-25T07:00:00.031Z,20.86
2022-08-25T07:01:00.068Z,20.89
2022-08-25T07:02:00.081Z,20.90
2022-08-25T07:03:00.008Z,20.90
2022-08-25T07:03:59.999Z,20.91
2022-08-25T07:04:59.980Z,20.91
2022-08-25T07:05:59.955Z,20.95
2022-08-25T07:06:59.954Z,20.96
2022-08-25T07:08:00.005Z,21.01
2022-08-25T07:08:59.920Z,20.99
2022-08-25T07:09:59.913Z,20.95
2022-08-25T07:10:59.926Z,20.93
2022-08-25T07:11:59.901Z,20.91
2022-08-25T07:12:59.860Z,20.91
2022-08-25T07:13:59.892Z,20.89
2022-08-25T07:15:18.971Z,20.86
2022-08-25T07:15:59.885Z,20.86
2022-08-25T07:16:59.908Z,20.89
2022-08-25T07:17:59.851Z,20.91
2022-08-25T07:19:00.308Z,20.90
2022-08-25T07:19:59.791Z,20.91
2022-08-25T07:20:59.792Z,20.95
2022-08-25T07:21:59.818Z,20.91
2022-08-25T07:22:59.807Z,20.91
2022-08-25T07:23:59.795Z,20.93
2022-08-25T07:24:59.730Z,20.90
2022-08-25T07:26:02.969Z,20.91
2022-08-25T07:26:59.746Z,20.95
2022-08-25T07:27:59.709Z,20.99
2022-08-25T07:28:59.722Z,21.05
2022-08-25T07:29:59.699Z,21.08
2022-08-25T07:30:59.699Z,21.09
2022-08-25T07:31:59.693Z,21.05
2022-08-25T07:33:00.778Z,21.04
2022-08-25T07:33:59.710Z,21.05
2022-08-25T07:34:59.676Z,21.06
2022-08-25T07:35:59.633Z,21.09
2022-08-25T07:36:59.625Z,21.09
2022-08-25T07:37:59.638Z,21.20
2022-08-25T07:38:59.585Z,21.27
2022-08-25T07:39:59.592Z,21.35
2022-08-25T07:40:59.569Z,21.42
2022-08-25T07:41:59.589Z,21.46
2022-08-25T07:42:59.694Z,21.38
2022-08-25T07:43:59.534Z,21.38
2022-08-25T07:44:59.568Z,21.30
2022-08-25T07:45:59.524Z,21.19
2022-08-25T07:46:59.576Z,21.16
2022-08-25T07:47:59.497Z,21.23
2022-08-25T07:48:59.473Z,21.20
2022-08-25T07:49:59.465Z,21.26
2022-08-25T07:51:01.741Z,21.29
2022-08-25T07:52:03.766Z,21.38
2022-08-25T07:52:59.598Z,21.50
2022-08-25T07:53:59.486Z,21.60
2022-08-25T07:54:59.418Z,21.72
2022-08-25T07:55:59.449Z,21.82
2022-08-25T07:56:59.423Z,21.92
2022-08-25T07:57:59.393Z,21.95
2022-08-25T07:58:59.365Z,21.99
2022-08-25T07:59:59.382Z,22.04
2022-08-25T08:00:59.343Z,21.99
2022-08-25T08:01:59.425Z,22.01
2022-08-25T08:02:59.416Z,21.98
2022-08-25T08:04:05.913Z,21.95
2022-08-25T08:04:59.303Z,21.95
2022-08-25T08:05:59.289Z,21.98
2022-08-25T08:06:59.285Z,22.07
2022-08-25T08:07:59.273Z,22.17
2022-08-25T08:08:59.265Z,22.19
2022-08-25T08:10:28.187Z,22.23
2022-08-25T08:11:06.318Z,22.19
2022-08-25T08:11:59.258Z,22.19
2022-08-25T08:12:59.224Z,22.17
2022-08-25T08:13:59.233Z,22.19
2022-08-25T08:14:59.198Z,22.19
2022-08-25T08:15:59.258Z,22.23
2022-08-25T08:16:59.196Z,22.25
2022-08-25T08:17:59.379Z,22.31
2022-08-25T08:18:59.148Z,22.32
2022-08-25T08:19:59.141Z,22.28
2022-08-25T08:20:59.135Z,22.31
2022-08-25T08:22:02.292Z,22.34
2022-08-25T08:22:59.120Z,22.43
2022-08-25T08:23:59.284Z,22.39
2022-08-25T08:24:59.077Z,22.37
2022-08-25T08:25:59.071Z,22.37
2022-08-25T08:26:59.428Z,22.37
2022-08-25T08:27:59.052Z,22.34
2022-08-25T08:28:59.035Z,22.37
2022-08-25T08:29:59.031Z,22.35
2022-08-25T08:30:59.086Z,22.44
2022-08-25T08:31:59.022Z,22.49
2022-08-25T08:33:09.688Z,22.50
2022-08-25T08:33:59.006Z,22.50
2022-08-25T08:34:58.976Z,22.56
2022-08-25T08:35:59.155Z,22.60
2022-08-25T08:36:58.968Z,22.67
2022-08-25T08:37:58.957Z,22.60
2022-08-25T08:38:58.936Z,22.54
2022-08-25T08:39:58.963Z,22.52
2022-08-25T08:40:58.912Z,22.54
2022-08-25T08:42:16.945Z,22.59
2022-08-25T08:42:59.032Z,22.65
2022-08-25T08:43:58.961Z,22.71
2022-08-25T08:45:02.003Z,22.78
2022-08-25T08:45:58.877Z,22.87
2022-08-25T08:46:58.861Z,22.96
2022-08-25T08:47:58.867Z,23.04
2022-08-25T08:48:58.821Z,23.17
2022-08-25T08:49:58.840Z,23.27
2022-08-25T08:50:58.803Z,23.29
2022-08-25T08:51:58.811Z,23.26
2022-08-25T08:52:58.781Z,23.26
2022-08-25T08:53:58.784Z,23.31
2022-08-25T08:54:58.765Z,23.08
2022-08-25T08:55:58.751Z,22.99
2022-08-25T08:56:58.753Z,22.87
2022-08-25T08:57:58.746Z,22.82
2022-08-25T08:59:00.574Z,22.74
2022-08-25T08:59:58.726Z,22.71
2022-08-25T09:00:58.691Z,22.71
2022-08-25T09:01:58.765Z,22.77
2022-08-25T09:02:58.707Z,22.84
2022-08-25T09:03:58.663Z,22.77
2022-08-25T09:04:58.651Z,22.78
2022-08-25T09:05:58.652Z,22.92
2022-08-25T09:06:58.646Z,23.02
2022-08-25T09:07:58.632Z,23.11
2022-08-25T09:08:58.623Z,23.12
2022-08-25T09:09:58.610Z,23.17
2022-08-25T09:10:58.583Z,23.15
2022-08-25T09:11:58.600Z,23.12
2022-08-25T09:12:58.571Z,23.19
2022-08-25T09:13:58.563Z,23.19
2022-08-25T09:14:58.544Z,23.20
2022-08-25T09:15:58.602Z,23.32
2022-08-25T09:16:58.544Z,23.35
2022-08-25T09:17:58.513Z,23.40
2022-08-25T09:18:58.506Z,23.46
2022-08-25T09:19:58.492Z,23.55
2022-08-25T09:20:58.484Z,23.47
2022-08-25T09:21:58.490Z,23.50
2022-08-25T09:22:58.456Z,23.57
2022-08-25T09:23:58.463Z,23.45
2022-08-25T09:24:58.435Z,23.42
2022-08-25T09:25:58.432Z,23.52
2022-08-25T09:26:58.427Z,23.64
2022-08-25T09:27:58.425Z,23.79
2022-08-25T09:28:58.386Z,23.97
2022-08-25T09:29:58.486Z,24.04
2022-08-25T09:30:58.486Z,24.08
2022-08-25T09:31:58.398Z,24.13
2022-08-25T09:32:58.357Z,24.13
2022-08-25T09:33:58.344Z,24.13
2022-08-25T09:34:58.328Z,24.14
2022-08-25T09:35:58.321Z,24.14
2022-08-25T09:36:58.323Z,24.02
2022-08-25T09:37:58.373Z,24.10
2022-08-25T09:38:58.281Z,24.13
2022-08-25T09:39:58.322Z,24.19
2022-08-25T09:40:58.281Z,24.13
2022-08-25T09:41:59.219Z,24.13
2022-08-25T09:42:58.640Z,24.01
2022-08-25T09:43:58.237Z,23.94
2022-08-25T09:44:58.245Z,23.90
2022-08-25T09:45:58.270Z,23.86
2022-08-25T09:46:58.219Z,23.94
2022-08-25T09:47:58.194Z,23.83
2022-08-25T09:48:58.191Z,23.72
2022-08-25T09:49:58.161Z,23.75
2022-08-25T09:50:58.156Z,23.79
2022-08-25T09:51:58.173Z,23.83
2022-08-25T09:52:58.133Z,23.89
2022-08-25T09:53:58.124Z,23.90
2022-08-25T09:54:58.108Z,23.82
2022-08-25T09:56:00.270Z,23.83
2022-08-25T09:56:58.107Z,23.76
2022-08-25T09:57:58.085Z,23.76
2022-08-25T09:59:02.377Z,23.89
2022-08-25T09:59:58.094Z,23.98
2022-08-25T10:00:58.077Z,24.02
2022-08-25T10:01:58.131Z,23.95
2022-08-25T10:02:58.028Z,23.89
2022-08-25T10:03:58.022Z,23.90
2022-08-25T10:04:58.033Z,23.86
2022-08-25T10:05:57.997Z,23.85
2022-08-25T10:06:58.000Z,23.77
2022-08-25T10:07:57.978Z,23.75
2022-08-25T10:08:57.973Z,23.82
2022-08-25T10:09:57.966Z,23.87
2022-08-25T10:10:57.942Z,24.01
2022-08-25T10:11:58.044Z,24.12
2022-08-25T10:12:57.922Z,24.26
2022-08-25T10:13:57.921Z,24.32
2022-08-25T10:14:57.934Z,24.34
2022-08-25T10:15:57.911Z,24.44
2022-08-25T10:16:57.903Z,24.54
2022-08-25T10:17:57.884Z,24.67
2022-08-25T10:18:57.861Z,24.82
2022-08-25T10:19:57.842Z,24.94
2022-08-25T10:20:57.833Z,24.90
2022-08-25T10:21:57.850Z,24.97
2022-08-25T10:22:57.809Z,25.01
2022-08-25T10:23:57.807Z,25.10
2022-08-25T10:24:57.792Z,24.95
2022-08-25T10:26:01.815Z,24.85
2022-08-25T10:26:57.797Z,24.92
2022-08-25T10:27:57.763Z,24.80
2022-08-25T10:28:57.749Z,24.88
2022-08-25T10:29:57.743Z,24.91
2022-08-25T10:30:57.803Z,24.77
2022-08-25T10:31:57.764Z,24.79
2022-08-25T10:32:57.709Z,24.91
2022-08-25T10:33:57.725Z,25.06
2022-08-25T10:34:57.713Z,25.17
2022-08-25T10:35:57.683Z,25.27
2022-08-25T10:36:57.721Z,25.44
2022-08-25T10:37:57.655Z,25.61
2022-08-25T10:38:57.650Z,25.71
2022-08-25T10:39:57.703Z,25.67
2022-08-25T10:40:57.630Z,25.61
2022-08-25T10:41:57.649Z,25.71
2022-08-25T10:42:57.608Z,25.75
2022-08-25T10:43:58.611Z,25.82
2022-08-25T10:44:57.588Z,25.86
2022-08-25T10:45:57.694Z,25.91
2022-08-25T10:46:57.580Z,26.02
2022-08-25T10:47:57.554Z,26.01
2022-08-25T10:48:58.473Z,25.99
2022-08-25T10:49:57.696Z,25.99
2022-08-25T10:50:57.512Z,26.06
2022-08-25T10:51:57.523Z,26.17
2022-08-25T10:52:57.500Z,26.24
2022-08-25T10:53:57.483Z,26.31
2022-08-25T10:54:57.477Z,26.25
2022-08-25T10:55:57.464Z,26.32
2022-08-25T10:57:01.473Z,26.40
2022-08-25T10:57:57.445Z,26.50
2022-08-25T10:58:57.436Z,26.52
2022-08-25T10:59:57.426Z,26.50
2022-08-25T11:00:57.506Z,26.50
2022-08-25T11:01:57.574Z,26.46
2022-08-25T11:02:57.428Z,26.44
2022-08-25T11:03:57.447Z,26.36
2022-08-25T11:04:57.424Z,26.29
2022-08-25T11:05:57.359Z,26.28
2022-08-25T11:06:57.357Z,26.24
2022-08-25T11:07:57.362Z,26.37
2022-08-25T11:08:57.322Z,26.50
2022-08-25T11:09:57.320Z,26.55
2022-08-25T11:10:57.303Z,26.59
2022-08-25T11:11:57.299Z,26.64
2022-08-25T11:12:57.282Z,26.73
2022-08-25T11:13:57.290Z,26.80
2022-08-25T11:14:57.266Z,26.92
2022-08-25T11:16:16.677Z,26.89
2022-08-25T11:16:57.337Z,26.98
2022-08-25T11:17:57.229Z,27.06
2022-08-25T11:18:57.208Z,27.04
2022-08-25T11:19:57.210Z,27.14
2022-08-25T11:20:57.191Z,27.21
2022-08-25T11:21:57.208Z,27.32
2022-08-25T11:22:57.165Z,27.33
2022-08-25T11:23:57.176Z,27.43
2022-08-25T11:24:57.147Z,27.53
2022-08-25T11:25:57.149Z,27.57
2022-08-25T11:26:57.128Z,27.62
2022-08-25T11:27:57.135Z,27.64
2022-08-25T11:28:57.109Z,27.71
2022-08-25T11:29:57.187Z,27.80
2022-08-25T11:30:57.173Z,27.80
2022-08-25T11:31:57.079Z,27.77
2022-08-25T11:32:57.180Z,27.74
2022-08-25T11:33:57.108Z,27.76
2022-08-25T11:34:57.090Z,27.82
2022-08-25T11:35:57.073Z,27.84
2022-08-25T11:36:57.031Z,27.85
2022-08-25T11:37:57.021Z,27.71
2022-08-25T11:38:57.013Z,27.71
2022-08-25T11:39:57.066Z,27.73
2022-08-25T11:40:56.985Z,27.67
2022-08-25T11:41:56.991Z,27.66
2022-08-25T11:42:56.960Z,27.67
2022-08-25T11:43:56.985Z,27.76
2022-08-25T11:44:56.944Z,27.85
2022-08-25T11:45:56.964Z,27.92
2022-08-25T11:46:56.936Z,28.04
2022-08-25T11:47:56.913Z,28.11
2022-08-25T11:48:56.905Z,28.17
2022-08-25T11:49:56.900Z,28.19
2022-08-25T11:50:56.883Z,28.06
2022-08-25T11:52:02.987Z,28.03
2022-08-25T11:52:56.910Z,28.03
2022-08-25T11:53:56.880Z,28.09
2022-08-25T11:54:56.861Z,28.14
2022-08-25T11:55:56.835Z,28.17
2022-08-25T11:56:56.837Z,28.19
2022-08-25T11:57:56.835Z,28.16
2022-08-25T11:58:56.786Z,28.17
2022-08-25T11:59:56.790Z,28.11
2022-08-25T12:00:56.790Z,28.09
2022-08-25T12:01:56.783Z,28.04
2022-08-25T12:03:00.919Z,28.13
2022-08-25T12:03:56.886Z,28.22
2022-08-25T12:04:56.859Z,28.35
2022-08-25T12:05:56.728Z,28.44
2022-08-25T12:06:56.711Z,28.48
2022-08-25T12:07:56.716Z,28.54
2022-08-25T12:08:57.619Z,28.63
2022-08-25T12:09:56.980Z,28.65
2022-08-25T12:10:56.940Z,28.70
2022-08-25T12:11:56.700Z,28.75
2022-08-25T12:12:56.729Z,28.78
2022-08-25T12:13:56.693Z,28.70
2022-08-25T12:14:56.622Z,28.53
2022-08-25T12:15:56.635Z,28.47
2022-08-25T12:16:56.740Z,28.43
2022-08-25T12:17:56.601Z,28.43
2022-08-25T12:18:56.579Z,28.40
2022-08-25T12:19:56.580Z,28.38
2022-08-25T12:20:56.585Z,28.40
2022-08-25T12:21:56.569Z,28.46
2022-08-25T12:22:56.662Z,28.47
2022-08-25T12:23:56.542Z,28.48
2022-08-25T12:24:56.523Z,28.54
2022-08-25T12:25:56.513Z,28.65
2022-08-25T12:26:56.506Z,28.69
2022-08-25T12:27:56.512Z,28.73
2022-08-25T12:28:56.494Z,28.78
2022-08-25T12:29:56.468Z,28.81
2022-08-25T12:30:56.495Z,28.75
2022-08-25T12:31:56.461Z,28.62
2022-08-25T12:32:56.445Z,28.65
2022-08-25T12:33:56.468Z,28.66
2022-08-25T12:34:56.424Z,28.62
2022-08-25T12:35:56.417Z,28.63
2022-08-25T12:36:56.396Z,28.54
2022-08-25T12:37:56.397Z,28.48
2022-08-25T12:38:56.382Z,28.50
2022-08-25T12:39:58.699Z,28.56
2022-08-25T12:40:56.373Z,28.62
2022-08-25T12:41:56.420Z,28.69
2022-08-25T12:42:56.345Z,28.72
2022-08-25T12:43:56.325Z,28.70
2022-08-25T12:44:56.316Z,28.78
2022-08-25T12:45:56.324Z,28.81
2022-08-25T12:46:56.306Z,28.81
2022-08-25T12:47:56.336Z,28.87
2022-08-25T12:48:56.266Z,28.81
2022-08-25T12:49:56.366Z,28.87
2022-08-25T12:50:56.290Z,28.91
2022-08-25T12:51:57.449Z,28.96
2022-08-25T12:52:56.226Z,28.96